Time;durP1;ratioP1;P1;durP2;ratioP2;P2;SDS_P1;SDS_P2;PMS_P1;PMS_P2;Temp;Humidity;BMP_temperature;BMP_pressure;BME280_temperature;BME280_humidity;BME280_pressure;Samples;Min_cycle;Max_cycle;Signal;HPM_P1;HPM_P2
2022/09/30 00:02:16;;;;;;;;;;;6.10;99.90;;;;;;5043714;28;19929;-69
2022/09/30 00:04:43;;;;;;;;;;;6.00;99.90;;;;;;5053673;28;19927;-69
2022/09/30 00:07:10;;;;;;;;;;;6.00;99.90;;;;;;5063672;28;19921;-69
2022/09/30 00:09:36;;;;;;;;;;;6.00;99.90;;;;;;5063800;28;19984;-69
2022/09/30 00:12:03;;;;;;;;;;;5.90;99.90;;;;;;5063459;28;19952;-69
2022/09/30 00:14:31;;;;;;;;;;;5.90;99.90;;;;;;5063383;28;19921;-69
2022/09/30 00:16:58;;;;;;;;;;;6.00;99.90;;;;;;5063545;28;20093;-70
2022/09/30 00:19:25;;;;;;;;;;;5.90;99.90;;;;;;5062695;28;20163;-69
2022/09/30 00:21:51;;;;;;;;;;;5.90;99.90;;;;;;5063546;28;19927;-69
2022/09/30 00:24:18;;;;;;;;;;;5.90;99.90;;;;;;5063334;28;19921;-69
2022/09/30 00:26:44;;;;;;;;;;;5.90;99.90;;;;;;5063230;28;19921;-69
2022/09/30 00:29:12;;;;;;;;;;;5.90;99.90;;;;;;5063037;28;19995;-68
2022/09/30 00:31:40;;;;;;;;;;;5.90;99.90;;;;;;5063456;28;19927;-69
2022/09/30 00:34:07;;;;;;;;;;;5.90;99.90;;;;;;5062907;28;19984;-69
2022/09/30 00:36:35;;;;;;;;;;;5.80;99.90;;;;;;5063647;28;19921;-69
2022/09/30 00:39:02;;;;;;;;;;;5.70;99.90;;;;;;5063468;28;19961;-69
2022/09/30 00:41:29;;;;;;;;;;;5.60;99.90;;;;;;5063066;28;20219;-69
2022/09/30 00:43:55;;;;;;;;;;;5.60;99.90;;;;;;5063388;28;19921;-69
2022/09/30 00:46:26;;;;;;;;;;;5.50;99.90;;;;;;5063079;28;20159;-69
2022/09/30 00:48:55;;;;;;;;;;;5.50;99.90;;;;;;5063377;28;19920;-69
2022/09/30 00:51:25;;;;;;;;;;;5.50;99.90;;;;;;5063423;28;19983;-69
2022/09/30 00:53:55;;;;;;;;;;;5.40;99.90;;;;;;5062946;28;19920;-69
2022/09/30 00:56:23;;;;;;;;;;;5.50;99.90;;;;;;5062893;28;20204;-70
2022/09/30 00:58:51;;;;;;;;;;;5.50;99.90;;;;;;5063436;28;19947;-69
2022/09/30 01:01:18;;;;;;;;;;;5.50;99.90;;;;;;5063126;28;19996;-69
2022/09/30 01:03:48;;;;;;;;;;;5.50;99.90;;;;;;5066111;28;19921;-69
2022/09/30 01:06:16;;;;;;;;;;;5.40;99.90;;;;;;5067019;28;19924;-69
2022/09/30 01:08:43;;;;;;;;;;;5.40;99.90;;;;;;5066615;28;20137;-70
2022/09/30 01:11:10;;;;;;;;;;;5.30;99.90;;;;;;5067162;28;19963;-69
2022/09/30 01:13:39;;;;;;;;;;;5.30;99.90;;;;;;5066098;28;20080;-69
2022/09/30 01:16:20;;;;;;;;;;;5.30;99.90;;;;;;5053666;28;20165;-69
2022/09/30 01:18:54;;;;;;;;;;;5.30;99.90;;;;;;5064181;28;19984;-69
2022/09/30 01:21:44;;;;;;;;;;;5.30;99.90;;;;;;5066763;28;20249;-68
2022/09/30 01:24:17;;;;;;;;;;;5.30;99.90;;;;;;5021782;28;19986;-69
2022/09/30 01:26:53;;;;;;;;;;;5.40;99.90;;;;;;5050551;28;19980;-69
2022/09/30 01:29:39;;;;;;;;;;;5.40;99.90;;;;;;5066820;28;19921;-69
2022/09/30 01:32:12;;;;;;;;;;;5.40;99.90;;;;;;5066767;28;19927;-69
2022/09/30 01:34:45;;;;;;;;;;;5.30;99.90;;;;;;5066241;28;20208;-69
2022/09/30 01:37:16;;;;;;;;;;;5.40;99.90;;;;;;5066052;28;19920;-69
2022/09/30 01:39:48;;;;;;;;;;;5.40;99.90;;;;;;5066698;28;20160;-69
2022/09/30 01:42:18;;;;;;;;;;;5.30;99.90;;;;;;5066091;28;19927;-68
2022/09/30 01:44:49;;;;;;;;;;;5.30;99.90;;;;;;5066343;28;20238;-69
2022/09/30 01:47:19;;;;;;;;;;;5.30;99.90;;;;;;5066509;28;19927;-69
2022/09/30 01:49:48;;;;;;;;;;;5.30;99.90;;;;;;5066242;28;19920;-69
2022/09/30 01:52:16;;;;;;;;;;;5.30;99.90;;;;;;5066616;28;19927;-69
2022/09/30 01:54:46;;;;;;;;;;;5.20;99.90;;;;;;5065969;28;19921;-69
2022/09/30 01:57:17;;;;;;;;;;;5.20;99.90;;;;;;5066006;28;19988;-69
2022/09/30 01:59:46;;;;;;;;;;;5.10;99.90;;;;;;5066105;28;19921;-69
2022/09/30 02:02:16;;;;;;;;;;;5.10;99.90;;;;;;5065974;28;19942;-69
2022/09/30 02:04:47;;;;;;;;;;;5.10;99.90;;;;;;5065666;28;19987;-69
2022/09/30 02:07:16;;;;;;;;;;;5.10;99.90;;;;;;5066113;28;19927;-69
2022/09/30 02:09:47;;;;;;;;;;;5.00;99.90;;;;;;5065778;28;19921;-69
2022/09/30 02:12:17;;;;;;;;;;;5.00;99.90;;;;;;5065546;28;19921;-68
2022/09/30 02:14:48;;;;;;;;;;;4.90;99.90;;;;;;5063895;28;19921;-69
2022/09/30 02:17:18;;;;;;;;;;;4.80;99.90;;;;;;5065561;28;20165;-68
2022/09/30 02:19:47;;;;;;;;;;;4.80;99.90;;;;;;5065585;28;20097;-69
2022/09/30 02:22:16;;;;;;;;;;;4.70;99.90;;;;;;5065864;28;19921;-69
2022/09/30 02:24:44;;;;;;;;;;;4.70;99.90;;;;;;5056045;28;19921;-69
2022/09/30 02:27:14;;;;;;;;;;;4.70;99.90;;;;;;5045704;28;19921;-69
2022/09/30 02:29:44;;;;;;;;;;;4.70;99.90;;;;;;5057738;28;19922;-69
2022/09/30 02:32:15;;;;;;;;;;;4.70;99.90;;;;;;5064681;28;20890;-68
2022/09/30 02:34:43;;;;;;;;;;;4.60;99.90;;;;;;5065410;28;19980;-69
2022/09/30 02:37:15;;;;;;;;;;;4.60;99.90;;;;;;5065268;28;20101;-69
2022/09/30 02:39:45;;;;;;;;;;;4.50;99.90;;;;;;5065279;28;20208;-69
2022/09/30 02:42:13;;;;;;;;;;;4.50;99.90;;;;;;5065113;28;19920;-71
2022/09/30 02:44:40;;;;;;;;;;;4.50;99.90;;;;;;5064907;28;19920;-69
2022/09/30 02:47:11;;;;;;;;;;;4.50;99.90;;;;;;5065001;28;20208;-69
2022/09/30 02:49:40;;;;;;;;;;;4.50;99.90;;;;;;5064977;28;19921;-69
2022/09/30 02:52:11;;;;;;;;;;;4.50;99.90;;;;;;5065306;28;19920;-69
2022/09/30 02:54:43;;;;;;;;;;;4.50;99.90;;;;;;5064749;28;20162;-69
2022/09/30 02:57:16;;;;;;;;;;;4.50;99.90;;;;;;5064847;28;19920;-69
2022/09/30 02:59:43;;;;;;;;;;;4.50;99.90;;;;;;5064972;28;20208;-69
2022/09/30 03:02:09;;;;;;;;;;;4.50;99.90;;;;;;5065159;28;19921;-68
2022/09/30 03:04:38;;;;;;;;;;;4.60;99.90;;;;;;5064930;28;19987;-69
2022/09/30 03:07:05;;;;;;;;;;;4.60;99.90;;;;;;5064702;28;19921;-69
2022/09/30 03:09:34;;;;;;;;;;;4.60;99.90;;;;;;5064890;28;20003;-69
2022/09/30 03:12:07;;;;;;;;;;;4.60;99.90;;;;;;5064552;28;20200;-69
2022/09/30 03:14:52;;;;;;;;;;;4.60;99.90;;;;;;5064241;28;20232;-69
2022/09/30 03:17:39;;;;;;;;;;;4.60;99.90;;;;;;5088890;22;19920;-90
2022/09/30 03:20:19;;;;;;;;;;;4.60;99.90;;;;;;5064809;28;19927;-90
2022/09/30 03:22:51;;;;;;;;;;;4.50;99.90;;;;;;5072631;28;20182;-90
2022/09/30 03:25:23;;;;;;;;;;;4.60;99.90;;;;;;5083757;28;19925;-91
2022/09/30 03:31:05;;;;;;;;;;;4.60;99.90;;;;;;5064437;28;19935;-90
2022/09/30 03:33:35;;;;;;;;;;;4.60;99.90;;;;;;5088815;22;19921;-72
2022/09/30 03:36:05;;;;;;;;;;;4.60;99.90;;;;;;5063595;28;19984;-73
2022/09/30 03:38:37;;;;;;;;;;;4.60;99.90;;;;;;5045857;28;19921;-73
2022/09/30 03:41:07;;;;;;;;;;;4.60;99.90;;;;;;5043957;28;19947;-73
2022/09/30 03:43:36;;;;;;;;;;;4.60;99.90;;;;;;5050948;28;19943;-73
2022/09/30 03:46:07;;;;;;;;;;;4.60;99.90;;;;;;5043056;28;20242;-72
2022/09/30 03:48:35;;;;;;;;;;;4.60;99.90;;;;;;5043717;28;19943;-72
2022/09/30 03:51:03;;;;;;;;;;;4.60;99.90;;;;;;5043711;28;19941;-72
2022/09/30 03:53:29;;;;;;;;;;;4.50;99.90;;;;;;5043917;28;19924;-72
2022/09/30 03:55:56;;;;;;;;;;;4.50;99.90;;;;;;5044042;28;19984;-71
2022/09/30 03:58:23;;;;;;;;;;;4.50;99.90;;;;;;5043588;28;20039;-72
2022/09/30 04:00:51;;;;;;;;;;;4.50;99.90;;;;;;5043703;28;19921;-73
2022/09/30 04:03:20;;;;;;;;;;;4.50;99.90;;;;;;5043781;28;19979;-72
2022/09/30 04:05:47;;;;;;;;;;;4.50;99.90;;;;;;5042908;28;19980;-72
2022/09/30 04:08:14;;;;;;;;;;;4.40;99.90;;;;;;5043612;28;19927;-72
2022/09/30 04:10:41;;;;;;;;;;;4.40;99.90;;;;;;5043703;28;19921;-72
2022/09/30 04:13:08;;;;;;;;;;;4.30;99.90;;;;;;5043267;28;19921;-72
2022/09/30 04:15:35;;;;;;;;;;;4.30;99.90;;;;;;5042938;28;19921;-72
2022/09/30 04:18:02;;;;;;;;;;;4.30;99.90;;;;;;5043373;28;19921;-72
2022/09/30 04:20:30;;;;;;;;;;;4.20;99.90;;;;;;5041941;28;20120;-72
2022/09/30 04:22:57;;;;;;;;;;;4.20;99.90;;;;;;5042941;28;20222;-72
2022/09/30 04:25:24;;;;;;;;;;;4.20;99.90;;;;;;5042877;28;19921;-72
2022/09/30 04:27:50;;;;;;;;;;;4.20;99.90;;;;;;5027087;28;19980;-72
2022/09/30 04:30:17;;;;;;;;;;;4.20;99.90;;;;;;5025844;28;19928;-71
2022/09/30 04:32:44;;;;;;;;;;;4.10;99.90;;;;;;5044470;28;20128;-72
2022/09/30 04:35:12;;;;;;;;;;;4.10;99.90;;;;;;5063366;28;19921;-70
2022/09/30 04:37:43;;;;;;;;;;;4.10;99.90;;;;;;5048940;28;19959;-71
2022/09/30 04:40:09;;;;;;;;;;;4.10;99.90;;;;;;5044977;28;19925;-71
2022/09/30 04:42:43;;;;;;;;;;;4.10;99.90;;;;;;5062993;28;19927;-72
2022/09/30 04:45:10;;;;;;;;;;;4.10;99.90;;;;;;5043635;28;19984;-71
2022/09/30 04:47:37;;;;;;;;;;;4.00;99.90;;;;;;5043903;28;19927;-71
2022/09/30 04:50:04;;;;;;;;;;;4.10;99.90;;;;;;5045764;28;20090;-71
2022/09/30 04:52:31;;;;;;;;;;;4.10;99.90;;;;;;5043641;28;19927;-71
2022/09/30 04:54:59;;;;;;;;;;;4.10;99.90;;;;;;5062304;28;20263;-71
2022/09/30 04:57:32;;;;;;;;;;;4.10;99.90;;;;;;5062899;28;19927;-71
2022/09/30 04:59:59;;;;;;;;;;;4.10;99.90;;;;;;5063720;28;19927;-71
2022/09/30 05:02:26;;;;;;;;;;;4.10;99.90;;;;;;5063353;28;19927;-71
2022/09/30 05:04:54;;;;;;;;;;;4.00;99.90;;;;;;5043463;28;19988;-71
2022/09/30 05:07:22;;;;;;;;;;;4.00;99.90;;;;;;5043522;28;19929;-71
2022/09/30 05:09:49;;;;;;;;;;;4.00;99.90;;;;;;5053754;28;19991;-70
2022/09/30 05:12:17;;;;;;;;;;;4.10;99.90;;;;;;5053059;28;19996;-70
2022/09/30 05:14:44;;;;;;;;;;;4.00;99.90;;;;;;5043335;28;19928;-71
2022/09/30 05:17:10;;;;;;;;;;;4.00;99.90;;;;;;5043379;28;20111;-70
2022/09/30 05:19:37;;;;;;;;;;;4.00;99.90;;;;;;5042922;28;19992;-70
2022/09/30 05:22:03;;;;;;;;;;;4.00;99.90;;;;;;5043054;28;19984;-71
2022/09/30 05:24:30;;;;;;;;;;;4.00;99.90;;;;;;5042974;28;20000;-73
2022/09/30 05:26:57;;;;;;;;;;;4.00;99.90;;;;;;5043294;28;19990;-72
2022/09/30 05:29:25;;;;;;;;;;;4.00;99.90;;;;;;5042823;28;19984;-73
2022/09/30 05:31:51;;;;;;;;;;;4.10;99.90;;;;;;5042486;28;19921;-72
2022/09/30 05:34:18;;;;;;;;;;;4.10;99.90;;;;;;5042665;28;19921;-72
2022/09/30 05:36:44;;;;;;;;;;;4.10;99.90;;;;;;5038843;28;19991;-73
2022/09/30 05:39:11;;;;;;;;;;;4.10;99.90;;;;;;5033895;28;19955;-73
2022/09/30 05:41:38;;;;;;;;;;;4.20;99.90;;;;;;5034941;28;19921;-72
2022/09/30 05:44:06;;;;;;;;;;;4.20;99.90;;;;;;5022772;28;20145;-72
2022/09/30 05:46:33;;;;;;;;;;;4.20;99.90;;;;;;5022242;28;20255;-72
2022/09/30 05:49:00;;;;;;;;;;;4.30;99.90;;;;;;5026601;28;19988;-72
2022/09/30 05:51:27;;;;;;;;;;;4.20;99.90;;;;;;5045039;28;19960;-72
2022/09/30 05:53:53;;;;;;;;;;;4.20;99.90;;;;;;5045992;28;19988;-72
2022/09/30 05:56:20;;;;;;;;;;;4.20;99.90;;;;;;5045771;28;19984;-75
2022/09/30 05:58:47;;;;;;;;;;;4.20;99.90;;;;;;5045734;28;20001;-74
2022/09/30 06:01:14;;;;;;;;;;;4.30;99.90;;;;;;5045249;28;19984;-73
2022/09/30 06:03:42;;;;;;;;;;;4.30;99.90;;;;;;5044254;28;19921;-73
2022/09/30 06:06:09;;;;;;;;;;;4.40;99.90;;;;;;5043611;28;19928;-73
2022/09/30 06:08:36;;;;;;;;;;;4.40;99.90;;;;;;5044866;28;19927;-72
2022/09/30 06:11:09;;;;;;;;;;;4.40;99.90;;;;;;5044783;28;19921;-72
2022/09/30 06:13:36;;;;;;;;;;;4.40;99.90;;;;;;5045135;28;19928;-72
2022/09/30 06:16:04;;;;;;;;;;;4.40;99.90;;;;;;5045910;28;19984;-73
2022/09/30 06:18:30;;;;;;;;;;;4.50;99.90;;;;;;5044195;28;20152;-71
2022/09/30 06:21:00;;;;;;;;;;;4.60;99.90;;;;;;5044878;28;19927;-72
2022/09/30 06:23:26;;;;;;;;;;;4.60;99.90;;;;;;5045553;28;19921;-72
2022/09/30 06:25:53;;;;;;;;;;;4.60;99.90;;;;;;5045275;28;20171;-72
2022/09/30 06:28:20;;;;;;;;;;;4.50;99.90;;;;;;5045482;28;19987;-72
2022/09/30 06:30:47;;;;;;;;;;;4.50;99.90;;;;;;5045135;28;19928;-72
2022/09/30 06:33:14;;;;;;;;;;;4.60;99.90;;;;;;5045155;28;19921;-72
2022/09/30 06:35:41;;;;;;;;;;;4.60;99.90;;;;;;5045085;28;20198;-72
2022/09/30 06:38:09;;;;;;;;;;;4.60;99.90;;;;;;5045208;28;20102;-71
2022/09/30 06:40:36;;;;;;;;;;;4.60;99.90;;;;;;5045178;28;19921;-72
2022/09/30 06:43:03;;;;;;;;;;;4.70;99.90;;;;;;5045138;28;20204;-71
2022/09/30 06:45:31;;;;;;;;;;;4.70;99.90;;;;;;5044687;28;19975;-71
2022/09/30 06:47:58;;;;;;;;;;;4.70;99.90;;;;;;5044946;28;20268;-72
2022/09/30 06:50:25;;;;;;;;;;;4.80;99.90;;;;;;5044920;28;19921;-72
2022/09/30 06:52:52;;;;;;;;;;;4.80;99.90;;;;;;5045094;28;19921;-72
2022/09/30 06:55:23;;;;;;;;;;;4.90;99.90;;;;;;5044561;28;20026;-71
2022/09/30 06:57:49;;;;;;;;;;;4.90;99.90;;;;;;5044707;28;19921;-72
2022/09/30 07:00:16;;;;;;;;;;;4.90;99.90;;;;;;5044134;28;19928;-73
2022/09/30 07:02:43;;;;;;;;;;;4.90;99.90;;;;;;5044997;28;19921;-71
2022/09/30 07:05:10;;;;;;;;;;;5.00;99.90;;;;;;5045074;28;20268;-73
2022/09/30 07:07:37;;;;;;;;;;;5.00;99.90;;;;;;5044435;28;19921;-71
2022/09/30 07:10:04;;;;;;;;;;;5.10;99.90;;;;;;5044395;28;19929;-72
2022/09/30 07:12:33;;;;;;;;;;;5.10;99.90;;;;;;5044477;28;19921;-72
2022/09/30 07:15:00;;;;;;;;;;;5.20;99.90;;;;;;5044233;28;20141;-72
2022/09/30 07:17:26;;;;;;;;;;;5.20;99.90;;;;;;5044666;28;19992;-72
2022/09/30 07:19:53;;;;;;;;;;;5.20;99.90;;;;;;5044323;28;19921;-72
2022/09/30 07:22:30;;;;;;;;;;;5.30;99.90;;;;;;5044451;28;20132;-72
2022/09/30 07:24:57;;;;;;;;;;;5.40;99.90;;;;;;5043457;28;19921;-72
2022/09/30 07:27:24;;;;;;;;;;;5.40;99.90;;;;;;5044531;28;19984;-72
2022/09/30 07:29:53;;;;;;;;;;;5.50;99.90;;;;;;5044077;28;19980;-72
2022/09/30 07:32:20;;;;;;;;;;;5.50;99.90;;;;;;5044251;28;20136;-72
2022/09/30 07:34:47;;;;;;;;;;;5.50;99.90;;;;;;5043828;28;19984;-72
2022/09/30 07:37:15;;;;;;;;;;;5.50;99.90;;;;;;5044225;28;19999;-71
2022/09/30 07:39:41;;;;;;;;;;;5.40;99.90;;;;;;5043967;28;19984;-72
2022/09/30 07:42:08;;;;;;;;;;;5.50;99.90;;;;;;5043914;28;19929;-71
2022/09/30 07:44:35;;;;;;;;;;;5.50;99.90;;;;;;5043839;28;19984;-71
2022/09/30 07:47:03;;;;;;;;;;;5.60;99.90;;;;;;5043964;28;19921;-72
2022/09/30 07:49:31;;;;;;;;;;;5.60;99.90;;;;;;5043540;28;19921;-72
2022/09/30 07:51:58;;;;;;;;;;;5.70;99.90;;;;;;5043747;28;20204;-72
2022/09/30 07:54:26;;;;;;;;;;;5.60;99.90;;;;;;5043532;28;19941;-73
2022/09/30 07:56:53;;;;;;;;;;;5.70;99.90;;;;;;5043557;28;19960;-72
2022/09/30 07:59:20;;;;;;;;;;;5.80;99.90;;;;;;5043726;28;19928;-72
2022/09/30 08:01:48;;;;;;;;;;;5.90;99.90;;;;;;5043770;28;20132;-72
2022/09/30 08:04:16;;;;;;;;;;;5.90;99.90;;;;;;5043717;28;19928;-70
2022/09/30 08:06:44;;;;;;;;;;;6.00;99.90;;;;;;5043276;28;19988;-72
2022/09/30 08:09:12;;;;;;;;;;;6.20;99.90;;;;;;5043535;28;19960;-72
2022/09/30 08:11:40;;;;;;;;;;;6.30;99.90;;;;;;5042431;28;19992;-72
2022/09/30 08:14:06;;;;;;;;;;;6.30;99.90;;;;;;5043062;28;19921;-72
2022/09/30 08:16:33;;;;;;;;;;;6.40;99.90;;;;;;5043309;28;19959;-72
2022/09/30 08:19:00;;;;;;;;;;;6.50;99.90;;;;;;5043394;28;19983;-72
2022/09/30 08:21:29;;;;;;;;;;;6.50;99.90;;;;;;5043017;28;20008;-72
2022/09/30 08:23:55;;;;;;;;;;;6.60;99.90;;;;;;5042906;28;20205;-72
2022/09/30 08:26:23;;;;;;;;;;;6.70;99.90;;;;;;5043185;28;20001;-73
2022/09/30 08:28:50;;;;;;;;;;;6.70;99.90;;;;;;5043258;28;19929;-72
2022/09/30 08:31:18;;;;;;;;;;;6.90;99.90;;;;;;5043072;28;19927;-72
2022/09/30 08:33:44;;;;;;;;;;;7.00;99.90;;;;;;5043133;28;19927;-72
2022/09/30 08:36:12;;;;;;;;;;;7.10;99.90;;;;;;5042738;28;20271;-72
2022/09/30 08:38:40;;;;;;;;;;;7.20;99.90;;;;;;5043275;28;19988;-72
2022/09/30 08:41:12;;;;;;;;;;;7.20;99.90;;;;;;5041413;28;19984;-73
2022/09/30 08:43:44;;;;;;;;;;;7.20;99.90;;;;;;5043489;28;19929;-72
2022/09/30 08:46:16;;;;;;;;;;;7.50;99.90;;;;;;5043848;28;19992;-72
2022/09/30 08:48:47;;;;;;;;;;;7.60;99.90;;;;;;5043824;28;20093;-72
2022/09/30 08:51:23;;;;;;;;;;;7.60;99.90;;;;;;5043851;28;20075;-72
2022/09/30 08:53:52;;;;;;;;;;;7.70;99.90;;;;;;5043174;28;19921;-72
2022/09/30 08:56:21;;;;;;;;;;;7.90;99.90;;;;;;5042366;28;19956;-72
2022/09/30 08:58:49;;;;;;;;;;;7.90;99.90;;;;;;5042860;28;20230;-72
2022/09/30 09:01:18;;;;;;;;;;;8.10;99.90;;;;;;5042771;28;19935;-71
2022/09/30 09:03:45;;;;;;;;;;;8.20;99.90;;;;;;5043080;28;19925;-71
2022/09/30 09:06:18;;;;;;;;;;;8.30;99.90;;;;;;5042441;28;19925;-72
2022/09/30 09:08:53;;;;;;;;;;;8.40;99.90;;;;;;5043112;28;20139;-71
2022/09/30 09:11:29;;;;;;;;;;;8.50;99.90;;;;;;5042035;28;20011;-72
2022/09/30 09:13:59;;;;;;;;;;;8.60;99.90;;;;;;5042851;28;20216;-72
2022/09/30 09:16:30;;;;;;;;;;;8.70;99.90;;;;;;5042491;28;19921;-72
2022/09/30 09:19:03;;;;;;;;;;;8.70;99.90;;;;;;5042938;28;19928;-71
2022/09/30 09:21:33;;;;;;;;;;;8.80;99.90;;;;;;5042713;28;20227;-72
2022/09/30 09:24:01;;;;;;;;;;;8.90;99.90;;;;;;5043411;28;19944;-71
2022/09/30 09:26:30;;;;;;;;;;;9.00;99.90;;;;;;5044824;28;19925;-71
2022/09/30 09:29:03;;;;;;;;;;;9.00;99.90;;;;;;5045894;28;19983;-72
2022/09/30 09:31:29;;;;;;;;;;;9.10;99.90;;;;;;5046152;28;19987;-72
2022/09/30 09:33:59;;;;;;;;;;;9.20;99.90;;;;;;5046122;28;19921;-72
2022/09/30 09:36:37;;;;;;;;;;;9.30;99.90;;;;;;5045914;28;19921;-72
2022/09/30 09:39:13;;;;;;;;;;;9.40;99.90;;;;;;5046426;28;20212;-72
2022/09/30 09:41:44;;;;;;;;;;;9.40;99.90;;;;;;5046265;28;19928;-72
2022/09/30 09:44:17;;;;;;;;;;;9.50;99.90;;;;;;5063895;22;19939;-70
2022/09/30 09:46:46;;;;;;;;;;;9.60;99.90;;;;;;5065790;28;19924;-70
2022/09/30 09:49:29;;;;;;;;;;;9.70;99.90;;;;;;5066255;28;19928;-70
2022/09/30 09:52:05;;;;;;;;;;;9.80;99.90;;;;;;5084382;28;19921;-70
2022/09/30 09:54:34;;;;;;;;;;;9.90;99.90;;;;;;5080621;28;19921;-70
2022/09/30 09:57:08;;;;;;;;;;;10.00;99.90;;;;;;5066007;28;20123;-70
2022/09/30 09:59:34;;;;;;;;;;;10.20;99.90;;;;;;5066016;28;19920;-70
2022/09/30 10:02:01;;;;;;;;;;;10.30;99.90;;;;;;5047051;28;19928;-70
2022/09/30 10:04:29;;;;;;;;;;;10.50;99.90;;;;;;5045522;28;19956;-70
2022/09/30 10:06:58;;;;;;;;;;;10.60;99.90;;;;;;5045910;28;19921;-70
2022/09/30 10:09:30;;;;;;;;;;;10.80;99.90;;;;;;5045804;28;19921;-69
2022/09/30 10:12:23;;;;;;;;;;;11.00;99.90;;;;;;5063349;28;19995;-70
2022/09/30 10:14:55;;;;;;;;;;;11.10;99.90;;;;;;5029768;28;19927;-69
2022/09/30 10:17:28;;;;;;;;;;;11.30;99.90;;;;;;5065763;28;19991;-69
2022/09/30 10:19:57;;;;;;;;;;;11.40;99.90;;;;;;5064438;28;19920;-69
2022/09/30 10:22:26;;;;;;;;;;;11.40;99.90;;;;;;5045457;28;19956;-70
2022/09/30 10:25:08;;;;;;;;;;;11.50;99.90;;;;;;5043217;28;19921;-70
2022/09/30 10:27:35;;;;;;;;;;;11.60;99.90;;;;;;5045358;28;19921;-70
2022/09/30 10:30:03;;;;;;;;;;;11.70;99.90;;;;;;5046847;28;19993;-70
2022/09/30 10:32:30;;;;;;;;;;;11.80;99.90;;;;;;5052820;28;19921;-70
2022/09/30 10:35:02;;;;;;;;;;;11.80;99.90;;;;;;5044480;28;19925;-69
2022/09/30 10:37:28;;;;;;;;;;;11.90;99.90;;;;;;5045329;28;19984;-69
2022/09/30 10:39:57;;;;;;;;;;;12.00;99.90;;;;;;5045664;28;19984;-69
2022/09/30 10:42:25;;;;;;;;;;;12.10;99.90;;;;;;5065233;28;20148;-70
2022/09/30 10:44:54;;;;;;;;;;;12.30;99.90;;;;;;5064636;28;19921;-70
2022/09/30 10:47:25;;;;;;;;;;;12.30;99.90;;;;;;5064872;28;19992;-70
2022/09/30 10:49:54;;;;;;;;;;;12.40;99.90;;;;;;5064943;28;19956;-69
2022/09/30 10:52:22;;;;;;;;;;;12.30;99.90;;;;;;5025194;28;19922;-70
2022/09/30 10:54:49;;;;;;;;;;;12.40;99.90;;;;;;5024851;28;20000;-70
2022/09/30 10:57:19;;;;;;;;;;;12.40;99.90;;;;;;5030650;28;20175;-69
2022/09/30 10:59:46;;;;;;;;;;;12.30;99.90;;;;;;5044678;28;19929;-69
2022/09/30 11:02:17;;;;;;;;;;;12.40;99.90;;;;;;5047979;28;19927;-70
2022/09/30 11:04:48;;;;;;;;;;;12.40;99.90;;;;;;5064468;28;19928;-69
2022/09/30 11:07:20;;;;;;;;;;;12.30;99.90;;;;;;5064793;28;19980;-69
2022/09/30 11:09:49;;;;;;;;;;;12.40;99.90;;;;;;5064700;28;19963;-70
2022/09/30 11:12:19;;;;;;;;;;;12.30;99.90;;;;;;5045853;28;19921;-70
2022/09/30 11:14:48;;;;;;;;;;;12.30;99.90;;;;;;5044343;28;19921;-70
2022/09/30 11:17:23;;;;;;;;;;;12.30;99.90;;;;;;5044676;28;19928;-70
2022/09/30 11:19:52;;;;;;;;;;;12.40;99.90;;;;;;5044624;28;19921;-70
2022/09/30 11:22:26;;;;;;;;;;;12.50;99.90;;;;;;5062702;28;19984;-70
2022/09/30 11:24:53;;;;;;;;;;;12.60;99.90;;;;;;5064004;28;19920;-70
2022/09/30 11:27:24;;;;;;;;;;;12.80;99.90;;;;;;5064626;28;19921;-70
2022/09/30 11:29:55;;;;;;;;;;;13.00;99.90;;;;;;5064353;28;19920;-70
2022/09/30 11:32:28;;;;;;;;;;;13.10;99.90;;;;;;5042328;28;19921;-70
2022/09/30 11:35:03;;;;;;;;;;;13.30;99.90;;;;;;5042895;28;19921;-70
2022/09/30 11:37:35;;;;;;;;;;;13.30;99.90;;;;;;5043123;28;19928;-70
2022/09/30 11:40:12;;;;;;;;;;;13.20;99.90;;;;;;5044279;28;19921;-70
2022/09/30 11:42:44;;;;;;;;;;;13.30;99.90;;;;;;5063737;28;19984;-69
2022/09/30 11:45:20;;;;;;;;;;;13.30;99.90;;;;;;5063841;28;19921;-69
2022/09/30 11:47:57;;;;;;;;;;;13.20;99.90;;;;;;5063619;28;19921;-70
2022/09/30 11:50:30;;;;;;;;;;;13.20;99.90;;;;;;5062486;28;19943;-69
2022/09/30 11:53:04;;;;;;;;;;;13.20;99.90;;;;;;5044059;28;19928;-69
2022/09/30 11:55:34;;;;;;;;;;;13.10;99.90;;;;;;5043108;28;19921;-70
2022/09/30 11:58:03;;;;;;;;;;;13.10;99.90;;;;;;5043832;28;20127;-69
2022/09/30 12:00:31;;;;;;;;;;;13.10;99.90;;;;;;5045268;28;19988;-69
2022/09/30 12:03:00;;;;;;;;;;;13.30;99.90;;;;;;5063810;28;19980;-70
2022/09/30 12:05:32;;;;;;;;;;;13.40;99.90;;;;;;5063425;28;19988;-70
2022/09/30 12:08:02;;;;;;;;;;;13.60;99.90;;;;;;5063529;28;19921;-70
2022/09/30 12:10:30;;;;;;;;;;;13.60;99.90;;;;;;5062104;28;19921;-70
2022/09/30 12:13:00;;;;;;;;;;;13.70;99.90;;;;;;5043664;28;19980;-69
2022/09/30 12:15:27;;;;;;;;;;;13.80;99.90;;;;;;5043479;28;19925;-70
2022/09/30 12:17:57;;;;;;;;;;;13.80;99.90;;;;;;5043792;28;20128;-70
2022/09/30 12:20:27;;;;;;;;;;;13.90;99.90;;;;;;5043749;28;19943;-69
2022/09/30 12:22:57;;;;;;;;;;;14.20;99.90;;;;;;5061398;28;20251;-70
2022/09/30 12:25:28;;;;;;;;;;;14.30;99.90;;;;;;5043055;28;20231;-73
2022/09/30 12:27:58;;;;;;;;;;;14.60;99.90;;;;;;5043480;28;19984;-70
2022/09/30 12:30:23;;;;;;;;;;;14.80;99.90;;;;;;5041371;28;19921;-70
2022/09/30 12:33:02;;;;;;;;;;;14.80;99.90;;;;;;5043352;28;20124;-70
2022/09/30 12:35:46;;;;;;;;;;;15.00;99.90;;;;;;5042981;28;19944;-70
2022/09/30 12:38:25;;;;;;;;;;;15.20;99.90;;;;;;5033138;28;19927;-70
2022/09/30 12:41:10;;;;;;;;;;;15.40;99.90;;;;;;5043516;28;19944;-70
2022/09/30 12:44:04;;;;;;;;;;;15.60;99.90;;;;;;5049026;28;19948;-73
2022/09/30 12:46:41;;;;;;;;;;;15.70;99.90;;;;;;5033790;28;19986;-72
2022/09/30 12:49:13;;;;;;;;;;;15.90;99.90;;;;;;5043483;28;19928;-73
2022/09/30 12:51:42;;;;;;;;;;;16.10;99.90;;;;;;5043305;28;19921;-73
2022/09/30 12:54:13;;;;;;;;;;;16.10;99.90;;;;;;5053847;28;19942;-72
2022/09/30 12:56:41;;;;;;;;;;;16.10;99.90;;;;;;5062861;28;20181;-72
2022/09/30 12:59:08;;;;;;;;;;;16.00;99.90;;;;;;5064600;28;19921;-73
2022/09/30 13:01:35;;;;;;;;;;;16.00;99.90;;;;;;5067364;28;20000;-72
2022/09/30 13:04:16;;;;;;;;;;;15.80;99.90;;;;;;5057460;28;19921;-73
2022/09/30 13:07:07;;;;;;;;;;;15.70;99.90;;;;;;5046621;28;19925;-72
2022/09/30 13:09:35;;;;;;;;;;;15.60;99.90;;;;;;5036268;28;19921;-73
2022/09/30 13:12:24;;;;;;;;;;;15.70;99.90;;;;;;5046813;28;19927;-71
2022/09/30 13:15:11;;;;;;;;;;;15.80;99.90;;;;;;5062465;28;19984;-70
2022/09/30 13:17:39;;;;;;;;;;;16.00;99.90;;;;;;5066642;28;19920;-70
2022/09/30 13:20:21;;;;;;;;;;;16.20;99.90;;;;;;5066866;28;19928;-69
2022/09/30 13:22:54;;;;;;;;;;;16.20;99.90;;;;;;5066652;28;19997;-70
2022/09/30 13:25:20;;;;;;;;;;;16.30;99.90;;;;;;5065803;28;20216;-70
2022/09/30 13:27:50;;;;;;;;;;;16.50;99.90;;;;;;5066192;28;19988;-70
2022/09/30 13:30:34;;;;;;;;;;;16.70;99.90;;;;;;5066774;28;19928;-70
2022/09/30 13:33:21;;;;;;;;;;;16.80;99.90;;;;;;5066253;28;19927;-71
2022/09/30 13:35:51;;;;;;;;;;;16.90;99.90;;;;;;5065632;28;19988;-70
2022/09/30 13:38:19;;;;;;;;;;;17.10;99.90;;;;;;5066741;28;20037;-69
2022/09/30 13:40:47;;;;;;;;;;;17.30;99.90;;;;;;5066349;28;19921;-70
2022/09/30 13:43:16;;;;;;;;;;;17.50;99.90;;;;;;5066068;28;19925;-69
2022/09/30 13:45:43;;;;;;;;;;;17.60;99.90;;;;;;5066056;28;19927;-68
2022/09/30 13:48:11;;;;;;;;;;;17.60;99.90;;;;;;5066449;28;19921;-69
2022/09/30 13:50:45;;;;;;;;;;;17.60;99.90;;;;;;5066147;28;19959;-69
2022/09/30 13:53:26;;;;;;;;;;;17.70;99.90;;;;;;5064598;28;19921;-69
2022/09/30 13:55:54;;;;;;;;;;;17.80;99.90;;;;;;5045957;28;19927;-69
2022/09/30 13:58:41;;;;;;;;;;;17.80;99.90;;;;;;5046455;28;20139;-69
2022/09/30 14:01:13;;;;;;;;;;;17.90;99.90;;;;;;5041196;28;19921;-69
2022/09/30 14:03:50;;;;;;;;;;;17.90;99.90;;;;;;5046526;28;19928;-69
2022/09/30 14:06:23;;;;;;;;;;;18.00;99.90;;;;;;5045765;28;19921;-70
2022/09/30 14:09:10;;;;;;;;;;;18.10;99.90;;;;;;5046125;28;19927;-69
2022/09/30 14:11:42;;;;;;;;;;;18.10;99.90;;;;;;5044652;28;19921;-69
2022/09/30 14:14:24;;;;;;;;;;;18.20;99.90;;;;;;5046152;28;19989;-69
2022/09/30 14:17:02;;;;;;;;;;;18.30;99.90;;;;;;5046023;28;20170;-69
2022/09/30 14:19:38;;;;;;;;;;;18.50;99.90;;;;;;5045863;28;19944;-70
2022/09/30 14:22:05;;;;;;;;;;;18.60;99.90;;;;;;5045792;28;19955;-70
2022/09/30 14:24:35;;;;;;;;;;;18.60;99.90;;;;;;5045614;28;19921;-70
2022/09/30 14:27:16;;;;;;;;;;;18.70;99.90;;;;;;5045587;28;19921;-70
2022/09/30 14:29:47;;;;;;;;;;;18.70;99.90;;;;;;5043106;28;19929;-69
2022/09/30 14:32:17;;;;;;;;;;;18.70;99.90;;;;;;5045905;28;19921;-70
2022/09/30 14:34:45;;;;;;;;;;;18.70;99.90;;;;;;5045228;28;19921;-70
2022/09/30 14:37:14;;;;;;;;;;;18.60;99.90;;;;;;5051196;28;19948;-70
2022/09/30 14:39:43;;;;;;;;;;;18.60;99.90;;;;;;5044825;28;19988;-69
2022/09/30 14:42:13;;;;;;;;;;;18.70;99.90;;;;;;5045642;28;20086;-70
2022/09/30 14:44:40;;;;;;;;;;;18.70;99.90;;;;;;5041851;28;19921;-70
2022/09/30 14:47:06;;;;;;;;;;;18.70;99.90;;;;;;5044651;28;19996;-70